• Join FlightAware (Why Join?)
  • Login
  • US Flag 
09:39AM EDT


 

Airport Tracker/Info


-or-


 

Live Flight TrackerFlight Track Log ✈ UAL6148 ✈ 15-Apr-2013 ✈ KORD - KLNK

Flight Track Log - Related Links

Times and Time Zones

All times are in EDT time to prevent confusion due to time zone crossing. See the UAL6148 flight status page for this flight to view local times or setup timezone preferences in your user account.

Time Position Orientation Groundspeed Altitude Reporting Facility
EDT Latitude Longitude Course Direction KTS MPH feet Rate Location/Type
07:20PM 42.0000 -88.0167 261° West 223 257 4,100  Level Chicago TRACON
07:22PM 42.0000 -88.1489 270° West 234 269 6,700 2,160 Climbing Chicago Center
07:23PM 42.0436 -88.2228 308° West 284 327 9,700 2,880 Climbing Chicago Center
07:24PM 42.0794 -88.3072 300° West 264 304 12,700 2,460 Climbing Chicago Center
07:25PM 42.0875 -88.3903 277° West 229 264 14,800 1,620 Climbing Chicago Center
07:26PM 41.8970 -88.6345 261° West  Level FlightAware Approximate
07:26PM 42.0856 -88.5056 269° West 259 298 16,100  Level Chicago Center
07:27PM 42.0647 -88.6039 254° West 274 315 18,400 1,740 Climbing Chicago Center
07:28PM 42.0439 -88.7050 255° West 280 322 19,800 1,380 Climbing Chicago Center
07:29PM 42.0217 -88.8125 254° West 296 341 21,300 1,380 Climbing Chicago Center
07:30PM 41.9986 -88.9231 254° West 309 356 22,700 1,500 Climbing Chicago Center
07:31PM 41.9669 -89.0597 253° West 319 367 24,500 2,100 Climbing Chicago Center
07:32PM 41.9533 -89.1719 261° West 308 354 27,100 2,220 Climbing Chicago Center
07:33PM 41.9422 -89.2744 262° West 287 330 29,100 1,560 Climbing Chicago Center
07:34PM 41.9308 -89.3733 261° West 274 315 30,400 1,200 Climbing Chicago Center
07:35PM 41.9203 -89.4733 262° West 273 314 31,700 780 Climbing Chicago Center
07:36PM 41.9075 -89.5800 261° West 286 329 32,000 120 Climbing Chicago Center
07:37PM 41.8908 -89.7269 261° West 332 382 32,000  Level Chicago Center
07:38PM 41.8750 -89.8592 261° West 357 411 32,000  Level Chicago Center
07:39PM 41.8614 -89.9961 262° West 373 429 32,000  Level Chicago Center
07:40PM 41.8444 -90.1325 261° West 375 432 32,000  Level Chicago Center
07:41PM 41.8283 -90.2658 261° West 369 425 32,000  Level Chicago Center
07:42PM 41.8128 -90.3983 261° West 364 419 32,000  Level Chicago Center
07:43PM 41.7942 -90.5483 261° West 369 425 32,000  Level Chicago Center
07:44PM 41.7753 -90.6964 260° West 368 423 32,000  Level Chicago Center
07:45PM 41.7586 -90.8317 261° West 370 426 32,000  Level Chicago Center
07:47PM 41.7419 -90.9650 261° West 367 422 32,000  Level Chicago Center
07:48PM 41.7247 -91.1000 260° West 367 422 32,000  Level Chicago Center
07:49PM 41.7072 -91.2328 260° West 366 421 32,000  Level Chicago Center
07:50PM 41.6861 -91.3919 260° West 364 419 32,000  Level Chicago Center
07:51PM 41.6692 -91.5256 260° West 365 420 32,000  Level Chicago Center
07:52PM 41.6514 -91.6575 260° West 363 418 32,000  Level Chicago Center
07:53PM 41.6336 -91.7922 260° West 368 423 32,000  Level Chicago Center
07:54PM 41.6153 -91.9258 260° West 370 426 32,000  Level Chicago Center
07:55PM 41.5975 -92.0586 260° West 367 422 32,000  Level Chicago Center
07:56PM 41.5794 -92.1931 260° West 369 425 32,000  Level Chicago Center
07:57PM 41.5572 -92.3525 260° West 367 422 32,000  Level Chicago Center
07:58PM 41.5389 -92.4850 260° West 366 421 32,000  Level Chicago Center
07:59PM 41.5197 -92.6161 259° West 365 420 32,000  Level Chicago Center
07:59PM 41.5147 -92.6522 260° West 364 419 32,000  Level Minneapolis Center
08:00PM 41.4956 -92.7847 259° West 366 421 32,000  Level Minneapolis Center
08:01PM 41.4764 -92.9139 259° West 363 418 32,000  Level Minneapolis Center
08:02PM 41.4506 -93.0972 259° West 363 418 32,000  Level Minneapolis Center
08:03PM 41.4317 -93.2281 259° West 363 418 32,000  Level Minneapolis Center
08:04PM 41.4119 -93.3572 259° West 362 417 32,000  Level Minneapolis Center
08:05PM 41.3919 -93.4858 258° West 359 413 32,000  Level Minneapolis Center
08:07PM 41.3719 -93.6156 258° West 361 415 32,000  Level Minneapolis Center
08:08PM 41.3522 -93.7458 259° West 361 415 32,000  Level Minneapolis Center
08:09PM 41.3300 -93.8961 259° West 356 410 32,000  Level Minneapolis Center
08:10PM 41.3114 -94.0242 259° West 356 410 32,000  Level Minneapolis Center
08:11PM 41.2906 -94.1533 258° West 359 413 32,000  Level Minneapolis Center
08:12PM 41.2697 -94.2883 258° West 361 415 32,000  Level Minneapolis Center
08:13PM 41.2500 -94.4175 259° West 358 412 32,000  Level Minneapolis Center
08:14PM 41.2275 -94.5469 257° West 359 413 32,000 -480 Level Minneapolis Center
08:15PM 41.2072 -94.6747 258° West 357 411 31,100 -1,200 Descending Minneapolis Center
08:16PM 41.1883 -94.8019 259° West 354 407 29,600 -1,620 Descending Minneapolis Center
08:17PM 41.1661 -94.9333 257° West 359 413 27,900 -1,800 Descending Minneapolis Center
08:18PM 41.1397 -95.0950 258° West 369 425 26,000 -1,800 Descending Minneapolis Center
08:19PM 41.1169 -95.2292 257° West 372 428 24,300 -1,860 Descending Minneapolis Center
08:19PM 41.1153 -95.2872 268° West 371 427 23,400 -2,040 Descending Minneapolis Center
08:20PM 41.0944 -95.3625 250° West 371 427 22,200 -2,100 Descending Minneapolis Center
08:20PM 41.0911 -95.4175 265° West 363 418 21,300 -2,160 Descending Minneapolis Center
08:21PM 41.0733 -95.4906 252° West 360 414 20,000 -2,340 Descending Minneapolis Center
08:21PM 41.0656 -95.5617 262° West 353 406 18,700 -2,220 Descending Minneapolis Center
08:22PM 41.0514 -95.6197 252° West 357 411 17,800 -2,280 Descending Minneapolis Center
08:22PM 41.0456 -95.6692 261° West 354 407 16,700 -2,280 Descending Minneapolis Center
08:23PM 41.0292 -95.7442 254° West 352 405 15,500 -2,100 Descending Minneapolis Center
08:23PM 41.0228 -95.7933 260° West 347 399 14,600 -1,980 Descending Minneapolis Center
08:24PM 41.0083 -95.8703 256° West 349 402 13,500 -1,800 Descending Minneapolis Center
08:24PM 40.9975 -95.9181 253° West 343 395 12,800 -1,680 Descending Minneapolis Center
08:25PM 40.9872 -95.9919 260° West 341 392 11,800 -1,500 Descending Minneapolis Center
08:25PM 40.9722 -96.0422 248° West 305 351 11,300 -900 Descending Minneapolis Center
08:26PM 40.9578 -96.0961 250° West 306 352 10,900 -840 Descending Minneapolis Center
08:26PM 40.9369 -96.1456 241° Southwest 283 326 10,400 -900 Descending Minneapolis Center
08:27PM 40.9275 -96.1897 254° West 282 325 10,000 -1,200 Descending Minneapolis Center
08:28PM 40.9072 -96.2372 241° Southwest 244 281 9,100 -1,800 Descending Minneapolis Center
08:28PM 40.8969 -96.2933 256° West 256 295 8,200 -1,620 Descending Minneapolis Center
08:29PM 40.8778 -96.3314 236° Southwest 260 299 7,500 -1,260 Descending Minneapolis Center
08:29PM 40.8689 -96.3806 257° West 256 295 6,900 -1,200 Descending Minneapolis Center
08:30PM 40.8453 -96.4175 230° Southwest 259 298 6,300 -1,020 Descending Minneapolis Center
08:30PM 40.8372 -96.4661 258° West 257 296 5,900 -1,020 Descending Minneapolis Center
08:31PM 40.8128 -96.5008 227° Southwest 256 295 5,300 -1,020 Descending Minneapolis Center
08:31PM 40.8047 -96.5511 258° West 259 298 4,900 -1,020 Descending Minneapolis Center
08:32PM 40.7803 -96.5814 223° Southwest 246 283 4,300 -1,020 Descending Minneapolis Center
08:32PM 40.7761 -96.6297 264° West 251 289 3,900 -1,020 Descending Minneapolis Center
08:33PM 40.7556 -96.6581 226° Southwest 211 243 3,300 -900 Descending Minneapolis Center
08:33PM 40.7603 -96.6986 279° West 223 257 3,000 -720 Descending Minneapolis Center
08:34PM 40.7547 -96.7161 247° West 141 162 2,600 -900 Descending Minneapolis Center
08:34PM 40.7742 -96.7456 311° West 167 192 2,100 -720 Descending Minneapolis Center
08:35PM 40.7822 -96.7544 320° Northwest 140 161 1,800 -240 Descending Minneapolis Center
08:35PM 40.8056 -96.7819 318° Northwest 151 174 1,900 120 Climbing Minneapolis Center